sensor_id;sensor_type;location;lat;lon;timestamp;pressure;altitude;pressure_sealevel;temperature;humidity
71770;BME280;59605;52.122;5.420;2022-11-20T00:00:06;101486.06;;;19.90;36.71
71770;BME280;59605;52.122;5.420;2022-11-20T00:02:32;101478.22;;;19.90;36.71
71770;BME280;59605;52.122;5.420;2022-11-20T00:04:59;101479.19;;;19.89;36.38
71770;BME280;59605;52.122;5.420;2022-11-20T00:07:25;101475.72;;;19.88;36.37
71770;BME280;59605;52.122;5.420;2022-11-20T00:09:51;101474.06;;;19.87;36.43
71770;BME280;59605;52.122;5.420;2022-11-20T00:12:18;101470.72;;;19.85;36.41
71770;BME280;59605;52.122;5.420;2022-11-20T00:14:44;101467.28;;;19.85;36.69
71770;BME280;59605;52.122;5.420;2022-11-20T00:17:11;101467.38;;;19.83;36.49
71770;BME280;59605;52.122;5.420;2022-11-20T00:19:37;101466.53;;;19.83;36.50
71770;BME280;59605;52.122;5.420;2022-11-20T00:22:03;101469.22;;;19.81;36.33
71770;BME280;59605;52.122;5.420;2022-11-20T00:24:30;101469.22;;;19.81;36.46
71770;BME280;59605;52.122;5.420;2022-11-20T00:26:56;101461.50;;;19.80;36.50
71770;BME280;59605;52.122;5.420;2022-11-20T00:29:22;101459.88;;;19.79;36.23
71770;BME280;59605;52.122;5.420;2022-11-20T00:31:49;101464.22;;;19.78;36.39
71770;BME280;59605;52.122;5.420;2022-11-20T00:34:15;101455.53;;;19.78;36.50
71770;BME280;59605;52.122;5.420;2022-11-20T00:36:41;101463.38;;;19.78;36.67
71770;BME280;59605;52.122;5.420;2022-11-20T00:39:08;101455.66;;;19.76;36.49
71770;BME280;59605;52.122;5.420;2022-11-20T00:41:34;101451.34;;;19.75;36.31
71770;BME280;59605;52.122;5.420;2022-11-20T00:44:01;101452.28;;;19.74;36.35
71770;BME280;59605;52.122;5.420;2022-11-20T00:46:27;101456.69;;;19.74;36.28
71770;BME280;59605;52.122;5.420;2022-11-20T00:48:54;101460.97;;;19.75;36.17
71770;BME280;59605;52.122;5.420;2022-11-20T00:51:22;101462.00;;;19.72;36.45
71770;BME280;59605;52.122;5.420;2022-11-20T00:53:50;101451.66;;;19.70;36.53
71770;BME280;59605;52.122;5.420;2022-11-20T00:56:18;101441.34;;;19.69;36.00
71770;BME280;59605;52.122;5.420;2022-11-20T00:58:48;101450.84;;;19.70;36.43
71770;BME280;59605;52.122;5.420;2022-11-20T01:01:16;101442.25;;;19.68;36.57
71770;BME280;59605;52.122;5.420;2022-11-20T01:03:46;101433.63;;;19.67;36.21
71770;BME280;59605;52.122;5.420;2022-11-20T01:08:44;101438.06;;;19.65;36.20
71770;BME280;59605;52.122;5.420;2022-11-20T01:11:15;101439.84;;;19.65;35.97
71770;BME280;59605;52.122;5.420;2022-11-20T01:13:42;101435.56;;;19.64;36.33
71770;BME280;59605;52.122;5.420;2022-11-20T01:16:12;101435.69;;;19.62;36.02
71770;BME280;59605;52.122;5.420;2022-11-20T01:18:41;101437.47;;;19.62;36.27
71770;BME280;59605;52.122;5.420;2022-11-20T01:21:20;101433.16;;;19.61;35.91
71770;BME280;59605;52.122;5.420;2022-11-20T01:23:48;101427.97;;;19.61;36.15
71770;BME280;59605;52.122;5.420;2022-11-20T01:26:17;101427.22;;;19.59;36.17
71770;BME280;59605;52.122;5.420;2022-11-20T01:28:44;101428.91;;;19.60;36.22
71770;BME280;59605;52.122;5.420;2022-11-20T01:31:19;101422.13;;;19.57;36.29
71770;BME280;59605;52.122;5.420;2022-11-20T01:33:48;101428.25;;;19.56;35.84
71770;BME280;59605;52.122;5.420;2022-11-20T01:36:16;101420.44;;;19.56;36.01
71770;BME280;59605;52.122;5.420;2022-11-20T01:38:43;101423.03;;;19.56;35.73
71770;BME280;59605;52.122;5.420;2022-11-20T01:41:11;101426.59;;;19.55;36.02
71770;BME280;59605;52.122;5.420;2022-11-20T01:43:59;101419.72;;;19.54;35.84
71770;BME280;59605;52.122;5.420;2022-11-20T01:46:25;101423.25;;;19.53;35.96
71770;BME280;59605;52.122;5.420;2022-11-20T01:48:59;101427.63;;;19.52;35.99
71770;BME280;59605;52.122;5.420;2022-11-20T01:51:45;101419.91;;;19.51;36.03
71770;BME280;59605;52.122;5.420;2022-11-20T01:54:18;101424.28;;;19.50;36.22
71770;BME280;59605;52.122;5.420;2022-11-20T01:56:47;101423.47;;;19.50;35.89
71770;BME280;59605;52.122;5.420;2022-11-20T01:59:15;101424.47;;;19.47;35.79
71770;BME280;59605;52.122;5.420;2022-11-20T02:01:43;101420.94;;;19.48;35.77
71770;BME280;59605;52.122;5.420;2022-11-20T02:04:10;101415.72;;;19.48;35.76
71770;BME280;59605;52.122;5.420;2022-11-20T02:06:44;101418.44;;;19.47;35.93
71770;BME280;59605;52.122;5.420;2022-11-20T02:09:14;101421.97;;;19.46;35.95
71770;BME280;59605;52.122;5.420;2022-11-20T02:11:40;101418.53;;;19.45;35.69
71770;BME280;59605;52.122;5.420;2022-11-20T02:14:07;101420.31;;;19.45;35.87
71770;BME280;59605;52.122;5.420;2022-11-20T02:16:37;101416.97;;;19.43;36.04
71770;BME280;59605;52.122;5.420;2022-11-20T02:19:09;101418.75;;;19.42;35.75
71770;BME280;59605;52.122;5.420;2022-11-20T02:21:48;101412.78;;;19.40;35.64
71770;BME280;59605;52.122;5.420;2022-11-20T02:24:19;101419.69;;;19.41;35.81
71770;BME280;59605;52.122;5.420;2022-11-20T02:26:52;101414.66;;;19.38;35.81
71770;BME280;59605;52.122;5.420;2022-11-20T02:29:25;101413.81;;;19.38;35.72
71770;BME280;59605;52.122;5.420;2022-11-20T02:31:53;101411.19;;;19.38;35.70
71770;BME280;59605;52.122;5.420;2022-11-20T02:34:21;101405.16;;;19.37;35.84
71770;BME280;59605;52.122;5.420;2022-11-20T02:36:48;101405.25;;;19.35;35.61
71770;BME280;59605;52.122;5.420;2022-11-20T02:39:15;101396.63;;;19.35;35.51
71770;BME280;59605;52.122;5.420;2022-11-20T02:41:43;101392.34;;;19.34;35.57
71770;BME280;59605;52.122;5.420;2022-11-20T02:44:09;101389.84;;;19.32;35.88
71770;BME280;59605;52.122;5.420;2022-11-20T02:46:36;101397.66;;;19.32;35.81
71770;BME280;59605;52.122;5.420;2022-11-20T02:49:04;101396.81;;;19.32;35.63
71770;BME280;59605;52.122;5.420;2022-11-20T02:51:31;101394.31;;;19.30;35.73
71770;BME280;59605;52.122;5.420;2022-11-20T02:53:57;101392.63;;;19.29;35.54
71770;BME280;59605;52.122;5.420;2022-11-20T02:56:24;101395.25;;;19.29;35.63
71770;BME280;59605;52.122;5.420;2022-11-20T02:58:52;101380.63;;;19.27;35.46
71770;BME280;59605;52.122;5.420;2022-11-20T03:01:18;101383.25;;;19.27;35.61
71770;BME280;59605;52.122;5.420;2022-11-20T03:03:45;101373.75;;;19.26;35.63
71770;BME280;59605;52.122;5.420;2022-11-20T03:06:11;101378.97;;;19.26;35.50
71770;BME280;59605;52.122;5.420;2022-11-20T03:08:38;101376.44;;;19.24;35.66
71770;BME280;59605;52.122;5.420;2022-11-20T03:11:06;101376.44;;;19.24;35.37
71770;BME280;59605;52.122;5.420;2022-11-20T03:13:33;101379.16;;;19.23;35.59
71770;BME280;59605;52.122;5.420;2022-11-20T03:16:08;101372.31;;;19.22;35.40
71770;BME280;59605;52.122;5.420;2022-11-20T03:18:35;101372.31;;;19.22;35.63
71770;BME280;59605;52.122;5.420;2022-11-20T03:21:01;101372.38;;;19.20;35.32
71770;BME280;59605;52.122;5.420;2022-11-20T03:23:29;101362.91;;;19.19;35.45
71770;BME280;59605;52.122;5.420;2022-11-20T03:26:06;101363.72;;;19.19;35.54
71770;BME280;59605;52.122;5.420;2022-11-20T03:28:32;101366.44;;;19.18;35.19
71770;BME280;59605;52.122;5.420;2022-11-20T03:31:05;101365.63;;;19.17;35.33
71770;BME280;59605;52.122;5.420;2022-11-20T03:33:31;101360.41;;;19.17;35.32
71770;BME280;59605;52.122;5.420;2022-11-20T03:36:01;101359.53;;;19.17;35.51
71770;BME280;59605;52.122;5.420;2022-11-20T03:38:30;101364.84;;;19.15;35.51
71770;BME280;59605;52.122;5.420;2022-11-20T03:41:35;101366.75;;;19.13;35.19
71770;BME280;59605;52.122;5.420;2022-11-20T03:43:52;101358.00;;;19.14;35.54
71770;BME280;59605;52.122;5.420;2022-11-20T03:46:20;101360.69;;;19.13;35.26
71770;BME280;59605;52.122;5.420;2022-11-20T03:48:46;101346.00;;;19.12;35.29
71770;BME280;59605;52.122;5.420;2022-11-20T03:51:19;101351.31;;;19.10;35.53
71770;BME280;59605;52.122;5.420;2022-11-20T03:53:46;101352.22;;;19.09;35.21
71770;BME280;59605;52.122;5.420;2022-11-20T03:56:14;101352.22;;;19.09;35.38
71770;BME280;59605;52.122;5.420;2022-11-20T03:58:42;101347.94;;;19.08;35.30
71770;BME280;59605;52.122;5.420;2022-11-20T04:01:20;101348.03;;;19.07;35.43
71770;BME280;59605;52.122;5.420;2022-11-20T04:03:47;101349.00;;;19.06;35.11
71770;BME280;59605;52.122;5.420;2022-11-20T04:06:19;101345.53;;;19.05;35.12
71770;BME280;59605;52.122;5.420;2022-11-20T04:08:46;101342.13;;;19.05;35.41
71770;BME280;59605;52.122;5.420;2022-11-20T04:11:21;101336.16;;;19.02;35.34
71770;BME280;59605;52.122;5.420;2022-11-20T04:13:54;101334.50;;;19.01;35.34
71770;BME280;59605;52.122;5.420;2022-11-20T04:16:21;101335.31;;;19.02;35.32
71770;BME280;59605;52.122;5.420;2022-11-20T04:18:52;101336.25;;;19.01;35.26
71770;BME280;59605;52.122;5.420;2022-11-20T04:21:19;101338.84;;;19.01;35.42
71770;BME280;59605;52.122;5.420;2022-11-20T04:23:46;101332.00;;;19.00;35.10
71770;BME280;59605;52.122;5.420;2022-11-20T04:26:13;101326.03;;;18.98;35.35
71770;BME280;59605;52.122;5.420;2022-11-20T04:28:39;101337.41;;;18.97;34.86
71770;BME280;59605;52.122;5.420;2022-11-20T04:31:14;101340.94;;;18.96;35.24
71770;BME280;59605;52.122;5.420;2022-11-20T04:33:41;101345.31;;;18.95;35.18
71770;BME280;59605;52.122;5.420;2022-11-20T04:36:11;101333.22;;;18.94;35.05
71770;BME280;59605;52.122;5.420;2022-11-20T04:38:38;101328.00;;;18.94;34.91
71770;BME280;59605;52.122;5.420;2022-11-20T04:41:06;101327.16;;;18.94;34.98
71770;BME280;59605;52.122;5.420;2022-11-20T04:43:33;101318.63;;;18.92;35.04
71770;BME280;59605;52.122;5.420;2022-11-20T04:46:00;101321.22;;;18.92;35.15
71770;BME280;59605;52.122;5.420;2022-11-20T04:48:28;101317.78;;;18.91;34.86
71770;BME280;59605;52.122;5.420;2022-11-20T04:50:54;101314.34;;;18.91;35.19
71770;BME280;59605;52.122;5.420;2022-11-20T04:53:22;101320.59;;;18.88;34.92
71770;BME280;59605;52.122;5.420;2022-11-20T04:55:48;101311.00;;;18.89;35.10
71770;BME280;59605;52.122;5.420;2022-11-20T04:58:16;101313.63;;;18.89;35.00
71770;BME280;59605;52.122;5.420;2022-11-20T05:00:42;101302.38;;;18.88;35.04
71770;BME280;59605;52.122;5.420;2022-11-20T05:03:09;101305.06;;;18.87;34.97
71770;BME280;59605;52.122;5.420;2022-11-20T05:05:35;101309.44;;;18.86;35.23
71770;BME280;59605;52.122;5.420;2022-11-20T05:08:02;101315.53;;;18.85;34.82
71770;BME280;59605;52.122;5.420;2022-11-20T05:10:28;101312.19;;;18.83;34.71
71770;BME280;59605;52.122;5.420;2022-11-20T05:12:54;101301.78;;;18.83;34.80
71770;BME280;59605;52.122;5.420;2022-11-20T05:15:21;101302.72;;;18.82;34.82
71770;BME280;59605;52.122;5.420;2022-11-20T05:17:48;101301.06;;;18.81;35.05
71770;BME280;59605;52.122;5.420;2022-11-20T05:20:15;101311.47;;;18.81;35.13
71770;BME280;59605;52.122;5.420;2022-11-20T05:22:42;101300.19;;;18.80;34.86
71770;BME280;59605;52.122;5.420;2022-11-20T05:25:09;101297.69;;;18.79;34.69
71770;BME280;59605;52.122;5.420;2022-11-20T05:27:36;101285.63;;;18.78;34.78
71770;BME280;59605;52.122;5.420;2022-11-20T05:30:04;101278.75;;;18.77;34.88
71770;BME280;59605;52.122;5.420;2022-11-20T05:32:30;101283.97;;;18.77;35.00
71770;BME280;59605;52.122;5.420;2022-11-20T05:34:57;101281.44;;;18.75;34.75
71770;BME280;59605;52.122;5.420;2022-11-20T05:37:23;101279.69;;;18.76;34.84
71770;BME280;59605;52.122;5.420;2022-11-20T05:39:49;101273.66;;;18.75;34.88
71770;BME280;59605;52.122;5.420;2022-11-20T05:42:16;101261.66;;;18.73;34.53
71770;BME280;59605;52.122;5.420;2022-11-20T05:44:58;101261.66;;;18.73;34.52
71770;BME280;59605;52.122;5.420;2022-11-20T05:47:26;101272.06;;;18.73;34.72
71770;BME280;59605;52.122;5.420;2022-11-20T05:49:53;101278.09;;;18.73;34.67
71770;BME280;59605;52.122;5.420;2022-11-20T05:52:20;101286.66;;;18.75;34.48
71770;BME280;59605;52.122;5.420;2022-11-20T05:54:46;101291.88;;;18.75;34.76
71770;BME280;59605;52.122;5.420;2022-11-20T05:57:13;101293.56;;;18.76;34.43
71770;BME280;59605;52.122;5.420;2022-11-20T05:59:39;101300.31;;;18.79;34.64
71770;BME280;59605;52.122;5.420;2022-11-20T06:02:06;101298.56;;;18.79;34.59
71770;BME280;59605;52.122;5.420;2022-11-20T06:04:32;101298.56;;;18.79;34.47
71770;BME280;59605;52.122;5.420;2022-11-20T06:06:58;101303.66;;;18.81;34.73
71770;BME280;59605;52.122;5.420;2022-11-20T06:09:25;101309.69;;;18.81;34.44
71770;BME280;59605;52.122;5.420;2022-11-20T06:11:51;101306.16;;;18.82;34.57
71770;BME280;59605;52.122;5.420;2022-11-20T06:14:17;101310.41;;;18.83;34.61
71770;BME280;59605;52.122;5.420;2022-11-20T06:16:44;101316.38;;;18.86;34.84
71770;BME280;59605;52.122;5.420;2022-11-20T06:19:10;101305.97;;;18.86;34.80
71770;BME280;59605;52.122;5.420;2022-11-20T06:21:36;101311.09;;;18.87;34.49
71770;BME280;59605;52.122;5.420;2022-11-20T06:24:03;101313.63;;;18.89;34.62
71770;BME280;59605;52.122;5.420;2022-11-20T06:26:30;101313.50;;;18.90;34.62
71770;BME280;59605;52.122;5.420;2022-11-20T06:28:56;101308.31;;;18.90;34.71
71770;BME280;59605;52.122;5.420;2022-11-20T06:31:24;101309.97;;;18.91;34.51
71770;BME280;59605;52.122;5.420;2022-11-20T06:33:51;101308.94;;;18.94;34.80
71770;BME280;59605;52.122;5.420;2022-11-20T06:36:20;101308.00;;;18.95;34.59
71770;BME280;59605;52.122;5.420;2022-11-20T06:38:46;101307.06;;;18.96;35.09
71770;BME280;59605;52.122;5.420;2022-11-20T06:41:15;101312.19;;;18.97;34.73
71770;BME280;59605;52.122;5.420;2022-11-20T06:43:42;101308.66;;;18.98;34.71
71770;BME280;59605;52.122;5.420;2022-11-20T06:46:11;101313.75;;;19.00;34.91
71770;BME280;59605;52.122;5.420;2022-11-20T06:48:37;101316.16;;;19.03;34.89
71770;BME280;59605;52.122;5.420;2022-11-20T06:51:05;101310.94;;;19.03;34.80
71770;BME280;59605;52.122;5.420;2022-11-20T06:53:32;101309.16;;;19.04;34.77
71770;BME280;59605;52.122;5.420;2022-11-20T06:55:59;101316.06;;;19.05;35.30
71770;BME280;59605;52.122;5.420;2022-11-20T06:58:30;101306.47;;;19.05;35.39
71770;BME280;59605;52.122;5.420;2022-11-20T07:01:01;101300.31;;;19.06;35.16
71770;BME280;59605;52.122;5.420;2022-11-20T07:03:28;101288.97;;;19.07;35.11
71770;BME280;59605;52.122;5.420;2022-11-20T07:05:55;101293.22;;;19.08;35.03
71770;BME280;59605;52.122;5.420;2022-11-20T07:08:23;101288.78;;;19.10;35.40
71770;BME280;59605;52.122;5.420;2022-11-20T07:10:49;101293.03;;;19.11;35.38
71770;BME280;59605;52.122;5.420;2022-11-20T07:13:16;101293.13;;;19.10;34.69
71770;BME280;59605;52.122;5.420;2022-11-20T07:15:42;101282.81;;;19.08;35.37
71770;BME280;59605;52.122;5.420;2022-11-20T07:18:09;101287.00;;;19.11;35.09
71770;BME280;59605;52.122;5.420;2022-11-20T07:20:35;101284.28;;;19.12;35.15
71770;BME280;59605;52.122;5.420;2022-11-20T07:23:01;101286.06;;;19.12;35.01
71770;BME280;59605;52.122;5.420;2022-11-20T07:25:28;101288.56;;;19.13;35.36
71770;BME280;59605;52.122;5.420;2022-11-20T07:27:58;101291.91;;;19.15;35.42
71770;BME280;59605;52.122;5.420;2022-11-20T07:30:25;101285.66;;;19.18;35.82
71770;BME280;59605;52.122;5.420;2022-11-20T07:32:52;101279.50;;;19.19;35.41
71770;BME280;59605;52.122;5.420;2022-11-20T07:35:19;101281.38;;;19.17;35.51
71770;BME280;59605;52.122;5.420;2022-11-20T07:37:46;101271.81;;;19.17;35.62
71770;BME280;59605;52.122;5.420;2022-11-20T07:40:13;101274.50;;;19.16;35.68
71770;BME280;59605;52.122;5.420;2022-11-20T07:42:50;101270.84;;;19.18;36.03
71770;BME280;59605;52.122;5.420;2022-11-20T07:45:18;101272.31;;;19.23;36.44
71770;BME280;59605;52.122;5.420;2022-11-20T07:47:44;101273.06;;;19.25;36.06
71770;BME280;59605;52.122;5.420;2022-11-20T07:50:11;101276.38;;;19.27;36.22
71770;BME280;59605;52.122;5.420;2022-11-20T07:52:38;101281.50;;;19.28;36.46
71770;BME280;59605;52.122;5.420;2022-11-20T07:55:05;101284.00;;;19.30;36.47
71770;BME280;59605;52.122;5.420;2022-11-20T07:57:32;101282.25;;;19.30;36.54
71770;BME280;59605;52.122;5.420;2022-11-20T07:59:59;101285.56;;;19.32;36.70
71770;BME280;59605;52.122;5.420;2022-11-20T08:02:25;101277.66;;;19.34;36.36
71770;BME280;59605;52.122;5.420;2022-11-20T08:04:51;101280.16;;;19.35;36.40
71770;BME280;59605;52.122;5.420;2022-11-20T08:07:18;101282.88;;;19.34;36.50
71770;BME280;59605;52.122;5.420;2022-11-20T08:09:44;101281.94;;;19.35;36.72
71770;BME280;59605;52.122;5.420;2022-11-20T08:12:18;101270.56;;;19.36;36.79
71770;BME280;59605;52.122;5.420;2022-11-20T08:15:04;101260.03;;;19.38;36.98
71770;BME280;59605;52.122;5.420;2022-11-20T08:17:38;101261.69;;;19.39;36.91
71770;BME280;59605;52.122;5.420;2022-11-20T08:20:04;101270.38;;;19.39;37.07
71770;BME280;59605;52.122;5.420;2022-11-20T08:22:31;101264.31;;;19.39;37.07
71770;BME280;59605;52.122;5.420;2022-11-20T08:24:58;101266.09;;;19.38;36.76
71770;BME280;59605;52.122;5.420;2022-11-20T08:27:24;101260.03;;;19.38;36.77
71770;BME280;59605;52.122;5.420;2022-11-20T08:29:50;101257.41;;;19.38;36.89
71770;BME280;59605;52.122;5.420;2022-11-20T08:32:17;101261.69;;;19.39;36.78
71770;BME280;59605;52.122;5.420;2022-11-20T08:34:43;101253.88;;;19.39;36.82
71770;BME280;59605;52.122;5.420;2022-11-20T08:37:09;101256.38;;;19.40;37.11
71770;BME280;59605;52.122;5.420;2022-11-20T08:39:36;101270.16;;;19.42;37.07
71770;BME280;59605;52.122;5.420;2022-11-20T08:42:06;101272.03;;;19.40;36.39
71770;BME280;59605;52.122;5.420;2022-11-20T08:44:33;101276.50;;;19.38;36.83
71770;BME280;59605;52.122;5.420;2022-11-20T08:47:00;101269.53;;;19.39;36.94
71770;BME280;59605;52.122;5.420;2022-11-20T08:49:26;101260.78;;;19.40;36.95
71770;BME280;59605;52.122;5.420;2022-11-20T08:51:53;101265.88;;;19.41;37.02
71770;BME280;59605;52.122;5.420;2022-11-20T08:54:21;101261.50;;;19.42;37.20
71770;BME280;59605;52.122;5.420;2022-11-20T08:56:48;101257.84;;;19.44;37.10
71770;BME280;59605;52.122;5.420;2022-11-20T08:59:15;101252.63;;;19.44;37.03
71770;BME280;59605;52.122;5.420;2022-11-20T09:02:01;101248.25;;;19.45;37.17
71770;BME280;59605;52.122;5.420;2022-11-20T09:04:28;101254.31;;;19.45;37.28
71770;BME280;59605;52.122;5.420;2022-11-20T09:06:54;101259.53;;;19.45;37.35
71770;BME280;59605;52.122;5.420;2022-11-20T09:09:21;101259.31;;;19.48;37.30
71770;BME280;59605;52.122;5.420;2022-11-20T09:11:47;101259.22;;;19.50;36.99
71770;BME280;59605;52.122;5.420;2022-11-20T09:14:16;101257.41;;;19.50;37.11
71770;BME280;59605;52.122;5.420;2022-11-20T09:16:44;101249.59;;;19.50;37.04
71770;BME280;59605;52.122;5.420;2022-11-20T09:19:11;101240.75;;;19.53;37.14
71770;BME280;59605;52.122;5.420;2022-11-20T09:21:57;101244.06;;;19.55;38.03
71770;BME280;59605;52.122;5.420;2022-11-20T09:24:26;101232.00;;;19.54;37.23
71770;BME280;59605;52.122;5.420;2022-11-20T09:26:55;101221.56;;;19.54;37.45
71770;BME280;59605;52.122;5.420;2022-11-20T09:29:21;101219.78;;;19.54;37.11
71770;BME280;59605;52.122;5.420;2022-11-20T09:31:48;101214.47;;;19.56;37.25
71770;BME280;59605;52.122;5.420;2022-11-20T09:34:15;101208.41;;;19.56;37.02
71770;BME280;59605;52.122;5.420;2022-11-20T09:36:41;101204.78;;;19.58;37.32
71770;BME280;59605;52.122;5.420;2022-11-20T09:39:08;101200.50;;;19.57;36.20
71770;BME280;59605;52.122;5.420;2022-11-20T09:44:37;101208.22;;;19.59;37.65
71770;BME280;59605;52.122;5.420;2022-11-20T09:47:40;101192.34;;;19.62;37.41
71770;BME280;59605;52.122;5.420;2022-11-20T09:55:51;101193.81;;;19.66;37.86
71770;BME280;59605;52.122;5.420;2022-11-20T09:58:43;101195.47;;;19.67;37.57
71770;BME280;59605;52.122;5.420;2022-11-20T10:01:19;101195.25;;;19.70;37.64
71770;BME280;59605;52.122;5.420;2022-11-20T10:03:54;101183.97;;;19.69;37.71
71770;BME280;59605;52.122;5.420;2022-11-20T10:06:29;101180.31;;;19.72;37.58
71770;BME280;59605;52.122;5.420;2022-11-20T10:14:48;101164.47;;;19.75;37.82
71770;BME280;59605;52.122;5.420;2022-11-20T10:17:46;101161.75;;;19.77;37.71
71770;BME280;59605;52.122;5.420;2022-11-20T10:20:30;101155.72;;;19.76;38.16
71770;BME280;59605;52.122;5.420;2022-11-20T10:25:38;101160.72;;;19.79;37.87
71770;BME280;59605;52.122;5.420;2022-11-20T10:31:23;101144.97;;;19.81;37.86
71770;BME280;59605;52.122;5.420;2022-11-20T10:33:54;101144.97;;;19.81;38.19
71770;BME280;59605;52.122;5.420;2022-11-20T10:36:54;101127.53;;;19.81;38.17
71770;BME280;59605;52.122;5.420;2022-11-20T10:39:41;101131.81;;;19.82;38.07
71770;BME280;59605;52.122;5.420;2022-11-20T10:42:16;101119.59;;;19.83;37.94
71770;BME280;59605;52.122;5.420;2022-11-20T10:44:51;101117.84;;;19.83;38.19
71770;BME280;59605;52.122;5.420;2022-11-20T10:47:31;101118.66;;;19.84;38.15
71770;BME280;59605;52.122;5.420;2022-11-20T10:50:03;101119.41;;;19.86;38.23
71770;BME280;59605;52.122;5.420;2022-11-20T10:52:55;101108.00;;;19.87;38.17
71770;BME280;59605;52.122;5.420;2022-11-20T10:55:33;101095.72;;;19.89;38.13
71770;BME280;59605;52.122;5.420;2022-11-20T10:58:22;101086.09;;;19.90;38.30
71770;BME280;59605;52.122;5.420;2022-11-20T11:01:18;101085.97;;;19.91;38.42
71770;BME280;59605;52.122;5.420;2022-11-20T11:03:44;101091.31;;;19.90;38.18
71770;BME280;59605;52.122;5.420;2022-11-20T11:06:32;101085.16;;;19.91;38.21
71770;BME280;59605;52.122;5.420;2022-11-20T11:09:11;101083.38;;;19.91;38.14
71770;BME280;59605;52.122;5.420;2022-11-20T11:11:39;101072.94;;;19.91;38.61
71770;BME280;59605;52.122;5.420;2022-11-20T11:14:10;101070.22;;;19.93;38.51
71770;BME280;59605;52.122;5.420;2022-11-20T11:16:49;101070.22;;;19.93;38.28
71770;BME280;59605;52.122;5.420;2022-11-20T11:19:16;101064.06;;;19.94;38.47
71770;BME280;59605;52.122;5.420;2022-11-20T11:21:52;101054.44;;;19.94;38.25
71770;BME280;59605;52.122;5.420;2022-11-20T11:24:26;101047.38;;;19.96;38.19
71770;BME280;59605;52.122;5.420;2022-11-20T11:27:13;101041.28;;;19.96;38.39
71770;BME280;59605;52.122;5.420;2022-11-20T11:29:43;101034.31;;;19.96;38.55
71770;BME280;59605;52.122;5.420;2022-11-20T11:32:15;101029.91;;;19.97;38.66
71770;BME280;59605;52.122;5.420;2022-11-20T11:34:41;101021.16;;;19.98;38.64
71770;BME280;59605;52.122;5.420;2022-11-20T11:37:20;101022.81;;;19.99;38.27
71770;BME280;59605;52.122;5.420;2022-11-20T11:39:48;101005.38;;;19.99;38.42
71770;BME280;59605;52.122;5.420;2022-11-20T11:42:35;101005.28;;;20.01;38.81
71770;BME280;59605;52.122;5.420;2022-11-20T11:45:15;100996.59;;;20.00;39.01
71770;BME280;59605;52.122;5.420;2022-11-20T11:55:10;100991.19;;;20.03;38.79
71770;BME280;59605;52.122;5.420;2022-11-20T11:57:48;100988.56;;;20.03;38.77
71770;BME280;59605;52.122;5.420;2022-11-20T12:00:18;100988.44;;;20.05;39.19
71770;BME280;59605;52.122;5.420;2022-11-20T12:05:24;100983.00;;;20.08;39.28
71770;BME280;59605;52.122;5.420;2022-11-20T12:11:24;100954.19;;;20.10;39.54
71770;BME280;59605;52.122;5.420;2022-11-20T12:14:09;100949.78;;;20.10;39.92
71770;BME280;59605;52.122;5.420;2022-11-20T12:16:38;100967.00;;;20.13;39.97
71770;BME280;59605;52.122;5.420;2022-11-20T12:19:11;100954.78;;;20.13;40.36
71770;BME280;59605;52.122;5.420;2022-11-20T12:21:49;100950.28;;;20.15;40.01
71770;BME280;59605;52.122;5.420;2022-11-20T12:29:58;100945.06;;;20.15;40.39
71770;BME280;59605;52.122;5.420;2022-11-20T12:41:43;100929.63;;;20.23;40.53
71770;BME280;59605;52.122;5.420;2022-11-20T12:48:03;100920.75;;;20.26;40.88
71770;BME280;59605;52.122;5.420;2022-11-20T12:56:51;100880.53;;;20.29;40.77
71770;BME280;59605;52.122;5.420;2022-11-20T13:02:14;100874.38;;;20.30;40.67
71770;BME280;59605;52.122;5.420;2022-11-20T13:07:27;100858.59;;;20.31;41.06
71770;BME280;59605;52.122;5.420;2022-11-20T13:09:54;100859.41;;;20.32;40.98
71770;BME280;59605;52.122;5.420;2022-11-20T13:13:16;100858.47;;;20.33;40.91
71770;BME280;59605;52.122;5.420;2022-11-20T13:15:58;100845.53;;;20.31;40.80
71770;BME280;59605;52.122;5.420;2022-11-20T13:18:28;100851.59;;;20.32;40.85
71770;BME280;59605;52.122;5.420;2022-11-20T13:21:00;100842.81;;;20.33;41.25
71770;BME280;59605;52.122;5.420;2022-11-20T13:23:28;100833.19;;;20.33;41.09
71770;BME280;59605;52.122;5.420;2022-11-20T13:26:16;100831.41;;;20.34;40.74
71770;BME280;59605;52.122;5.420;2022-11-20T13:28:43;100826.06;;;20.35;40.83
71770;BME280;59605;52.122;5.420;2022-11-20T13:31:34;100813.13;;;20.34;41.10
71770;BME280;59605;52.122;5.420;2022-11-20T13:34:03;100816.47;;;20.36;40.85
71770;BME280;59605;52.122;5.420;2022-11-20T13:36:31;100822.38;;;20.38;40.75
71770;BME280;59605;52.122;5.420;2022-11-20T13:38:58;100822.38;;;20.38;40.69
71770;BME280;59605;52.122;5.420;2022-11-20T13:41:36;100825.84;;;20.38;41.18
71770;BME280;59605;52.122;5.420;2022-11-20T13:44:38;100812.78;;;20.38;41.04
71770;BME280;59605;52.122;5.420;2022-11-20T13:47:23;100798.63;;;20.41;40.80
71770;BME280;59605;52.122;5.420;2022-11-20T13:49:55;100801.13;;;20.43;41.08
71770;BME280;59605;52.122;5.420;2022-11-20T13:52:54;100784.41;;;20.45;40.64
71770;BME280;59605;52.122;5.420;2022-11-20T13:55:38;100782.72;;;20.44;41.15
71770;BME280;59605;52.122;5.420;2022-11-20T14:01:05;100801.00;;;20.44;41.15
71770;BME280;59605;52.122;5.420;2022-11-20T14:03:34;100801.13;;;20.43;40.93
71770;BME280;59605;52.122;5.420;2022-11-20T14:06:31;100796.88;;;20.42;41.02
71770;BME280;59605;52.122;5.420;2022-11-20T14:08:59;100795.09;;;20.42;40.78
71770;BME280;59605;52.122;5.420;2022-11-20T14:11:26;100794.16;;;20.43;41.19
71770;BME280;59605;52.122;5.420;2022-11-20T14:14:00;100775.03;;;20.43;41.19
71770;BME280;59605;52.122;5.420;2022-11-20T14:16:29;100760.22;;;20.43;41.16